Iliamna Airport Iliamna US
ICAO: PAIL
IATA:
Category: Medium
Scheduled Services:

Elevation: 192 ft
TransAlt. 18000 ft.

Airport Communications:
ASOS:134.95
ATIS:134.95
ANCHORAGE CNTR:118.8
CTAF:123.6
RDO:123.6
KENAI RDO:121.2
KENAI RDO:122.2

PAIL Zoom In..

If you have problems with the map follow the link
https://www.worldairports.se/pages/airport.php?
ICAO=PAIL

Runways:

(A) RW 07 length 5086 ft width 100 ft
---- / hdg 76

(B) RW 17 length 4800 ft width 100 ft
---- / hdg 172

(C) RW 25 length 5086 ft width 100 ft
---- / hdg 256

(D) RW 35 length 4800 ft width 100 ft
---- / hdg 352

Location; PAIL
Day. 16 / Time. 02.53 Zulu
* Altimeter: 30.02
* Temperature: 01° c. 33.8°f.
* Wind from: 310° Speed 04 kn.
Dewpoint: -03° c.
Visibility: 10 Statute Miles.
Clouds: Few 6500 ft.
Clouds: Scattered 9000 ft.
Clouds: Overcast 12000 ft.

PAIL 160253Z 31004KT 10SM FEW065 SCT090 OVC120 01/M03 A3002 RMK AO2 SLP168 T00061028 55006


Wind From 310°
Speed 04 kn.

 
 
jpsmedia.com for Web Design worldairports.se 2018   terms of use